sensor_id;sensor_type;location;lat;lon;timestamp;pressure;altitude;pressure_sealevel;temperature;humidity
24302;BME280;12421;49.732;20.078;2024-01-11T00:05:05;98018.93;;;-14.19;72.25
24302;BME280;12421;49.732;20.078;2024-01-11T00:15:10;98005.36;;;-14.03;72.55
24302;BME280;12421;49.732;20.078;2024-01-11T00:25:13;97994.25;;;-13.98;71.97
24302;BME280;12421;49.732;20.078;2024-01-11T00:35:16;97973.55;;;-14.06;71.88
24302;BME280;12421;49.732;20.078;2024-01-11T00:45:20;97953.91;;;-14.20;71.85
24302;BME280;12421;49.732;20.078;2024-01-11T00:55:23;97947.74;;;-14.28;71.90
24302;BME280;12421;49.732;20.078;2024-01-11T01:05:27;97945.39;;;-14.50;72.16
24302;BME280;12421;49.732;20.078;2024-01-11T01:15:31;97942.89;;;-14.55;72.50
24302;BME280;12421;49.732;20.078;2024-01-11T01:25:34;97940.73;;;-14.44;72.60
24302;BME280;12421;49.732;20.078;2024-01-11T01:35:37;97931.54;;;-14.47;72.31
24302;BME280;12421;49.732;20.078;2024-01-11T01:45:40;97925.60;;;-14.34;72.67
24302;BME280;12421;49.732;20.078;2024-01-11T01:55:44;97912.54;;;-14.26;72.34
24302;BME280;12421;49.732;20.078;2024-01-11T02:05:48;97911.45;;;-14.40;71.84
24302;BME280;12421;49.732;20.078;2024-01-11T02:15:51;97899.48;;;-14.49;72.33
24302;BME280;12421;49.732;20.078;2024-01-11T02:25:55;97905.24;;;-14.46;72.40
24302;BME280;12421;49.732;20.078;2024-01-11T02:35:58;97894.42;;;-14.56;72.44
24302;BME280;12421;49.732;20.078;2024-01-11T02:46:02;97883.86;;;-14.47;72.55
24302;BME280;12421;49.732;20.078;2024-01-11T02:56:06;97886.66;;;-14.39;72.80
24302;BME280;12421;49.732;20.078;2024-01-11T03:06:09;97878.15;;;-14.43;72.79
24302;BME280;12421;49.732;20.078;2024-01-11T03:16:12;97868.73;;;-14.39;72.65
24302;BME280;12421;49.732;20.078;2024-01-11T03:26:17;97869.69;;;-14.44;72.40
24302;BME280;12421;49.732;20.078;2024-01-11T03:36:23;97879.27;;;-14.47;72.47
24302;BME280;12421;49.732;20.078;2024-01-11T03:46:28;97884.38;;;-14.50;72.26
24302;BME280;12421;49.732;20.078;2024-01-11T03:56:31;97870.65;;;-14.25;72.36
24302;BME280;12421;49.732;20.078;2024-01-11T04:06:34;97851.23;;;-14.34;71.74
24302;BME280;12421;49.732;20.078;2024-01-11T04:16:42;97836.75;;;-14.39;72.04
24302;BME280;12421;49.732;20.078;2024-01-11T04:26:45;97843.53;;;-14.54;71.60
24302;BME280;12421;49.732;20.078;2024-01-11T04:36:49;97850.15;;;-14.83;71.92
24302;BME280;12421;49.732;20.078;2024-01-11T04:46:52;97842.94;;;-14.71;72.84
24302;BME280;12421;49.732;20.078;2024-01-11T04:56:55;97838.89;;;-14.43;72.29
24302;BME280;12421;49.732;20.078;2024-01-11T05:06:58;97821.70;;;-14.36;72.54
24302;BME280;12421;49.732;20.078;2024-01-11T05:17:01;97813.86;;;-14.28;72.17
24302;BME280;12421;49.732;20.078;2024-01-11T05:27:05;97804.57;;;-14.48;71.80
24302;BME280;12421;49.732;20.078;2024-01-11T05:37:08;97797.65;;;-14.53;72.04
24302;BME280;12421;49.732;20.078;2024-01-11T05:47:11;97789.30;;;-14.63;71.96
24302;BME280;12421;49.732;20.078;2024-01-11T05:57:14;97765.50;;;-14.51;72.72
24302;BME280;12421;49.732;20.078;2024-01-11T06:07:18;97734.52;;;-14.17;72.51
24302;BME280;12421;49.732;20.078;2024-01-11T06:17:21;97740.39;;;-14.15;71.75
24302;BME280;12421;49.732;20.078;2024-01-11T06:27:24;97727.86;;;-14.39;72.25
24302;BME280;12421;49.732;20.078;2024-01-11T06:37:28;97729.50;;;-14.38;72.27
24302;BME280;12421;49.732;20.078;2024-01-11T06:47:31;97726.91;;;-14.26;72.40
24302;BME280;12421;49.732;20.078;2024-01-11T06:57:34;97745.30;;;-14.30;72.16
24302;BME280;12421;49.732;20.078;2024-01-11T07:07:39;97713.33;;;-14.13;72.53
24302;BME280;12421;49.732;20.078;2024-01-11T07:17:42;97701.61;;;-13.92;72.20
24302;BME280;12421;49.732;20.078;2024-01-11T07:27:45;97676.59;;;-13.77;72.60
24302;BME280;12421;49.732;20.078;2024-01-11T07:37:49;97651.39;;;-13.56;72.51
24302;BME280;12421;49.732;20.078;2024-01-11T07:47:53;97649.65;;;-13.29;72.55
24302;BME280;12421;49.732;20.078;2024-01-11T07:57:56;97639.37;;;-12.89;73.38
24302;BME280;12421;49.732;20.078;2024-01-11T08:07:59;97620.72;;;-12.42;73.34
24302;BME280;12421;49.732;20.078;2024-01-11T08:18:06;97627.46;;;-11.73;73.38
24302;BME280;12421;49.732;20.078;2024-01-11T08:28:10;97633.55;;;-11.04;73.50
24302;BME280;12421;49.732;20.078;2024-01-11T08:38:13;97629.33;;;-10.16;73.60
24302;BME280;12421;49.732;20.078;2024-01-11T08:48:17;97627.25;;;-9.26;74.07
24302;BME280;12421;49.732;20.078;2024-01-11T08:58:21;97595.75;;;-8.22;74.07
24302;BME280;12421;49.732;20.078;2024-01-11T09:08:24;97584.56;;;-7.36;73.89
24302;BME280;12421;49.732;20.078;2024-01-11T09:18:27;97610.48;;;-6.55;74.43
24302;BME280;12421;49.732;20.078;2024-01-11T09:28:31;97590.55;;;-5.82;75.24
24302;BME280;12421;49.732;20.078;2024-01-11T09:38:34;97560.84;;;-4.94;74.87
24302;BME280;12421;49.732;20.078;2024-01-11T09:48:38;97571.65;;;-4.43;73.77
24302;BME280;12421;49.732;20.078;2024-01-11T09:58:46;97589.36;;;-3.81;73.74
24302;BME280;12421;49.732;20.078;2024-01-11T10:08:53;97557.17;;;-3.22;74.50
24302;BME280;12421;49.732;20.078;2024-01-11T10:18:57;97530.61;;;-2.32;74.39
24302;BME280;12421;49.732;20.078;2024-01-11T10:29:01;97530.96;;;-1.77;73.08
24302;BME280;12421;49.732;20.078;2024-01-11T10:39:07;97506.91;;;-1.31;72.98
24302;BME280;12421;49.732;20.078;2024-01-11T10:49:11;97484.33;;;-0.88;72.38
24302;BME280;12421;49.732;20.078;2024-01-11T10:59:17;97476.34;;;-0.76;72.31
24302;BME280;12421;49.732;20.078;2024-01-11T11:09:22;97464.46;;;-0.38;72.19
24302;BME280;12421;49.732;20.078;2024-01-11T11:19:27;97449.42;;;-0.04;72.81
24302;BME280;12421;49.732;20.078;2024-01-11T11:29:30;97429.13;;;0.31;72.62
24302;BME280;12421;49.732;20.078;2024-01-11T11:39:33;97409.14;;;0.65;71.99
24302;BME280;12421;49.732;20.078;2024-01-11T11:50:03;97393.98;;;0.92;72.47
24302;BME280;12421;49.732;20.078;2024-01-11T12:00:15;97363.60;;;0.88;70.98
24302;BME280;12421;49.732;20.078;2024-01-11T12:10:19;97328.54;;;0.78;70.50
24302;BME280;12421;49.732;20.078;2024-01-11T12:20:22;97314.67;;;0.77;70.29
24302;BME280;12421;49.732;20.078;2024-01-11T12:30:27;97307.50;;;0.74;70.34
24302;BME280;12421;49.732;20.078;2024-01-11T12:40:32;97283.77;;;0.72;68.73
24302;BME280;12421;49.732;20.078;2024-01-11T12:50:36;97269.77;;;0.94;67.77
24302;BME280;12421;49.732;20.078;2024-01-11T13:00:39;97260.13;;;0.95;67.29
24302;BME280;12421;49.732;20.078;2024-01-11T13:10:43;97260.70;;;0.91;68.62
24302;BME280;12421;49.732;20.078;2024-01-11T13:20:46;97232.89;;;0.86;67.51
24302;BME280;12421;49.732;20.078;2024-01-11T13:30:50;97228.36;;;0.79;69.46
24302;BME280;12421;49.732;20.078;2024-01-11T13:40:54;97213.10;;;0.66;69.89
24302;BME280;12421;49.732;20.078;2024-01-11T13:50:58;97207.98;;;0.64;68.78
24302;BME280;12421;49.732;20.078;2024-01-11T14:01:03;97191.31;;;0.66;68.24
24302;BME280;12421;49.732;20.078;2024-01-11T14:11:07;97202.73;;;0.56;68.05
24302;BME280;12421;49.732;20.078;2024-01-11T14:21:10;97225.09;;;0.47;69.63
24302;BME280;12421;49.732;20.078;2024-01-11T14:31:14;97236.77;;;0.25;71.05
24302;BME280;12421;49.732;20.078;2024-01-11T14:41:17;97248.80;;;-0.07;71.25
24302;BME280;12421;49.732;20.078;2024-01-11T14:51:21;97242.09;;;-0.25;69.18
24302;BME280;12421;49.732;20.078;2024-01-11T15:01:24;97247.20;;;-0.37;68.59
24302;BME280;12421;49.732;20.078;2024-01-11T15:11:28;97271.28;;;-0.44;68.62
24302;BME280;12421;49.732;20.078;2024-01-11T15:21:31;97297.23;;;-0.50;68.97
24302;BME280;12421;49.732;20.078;2024-01-11T15:31:34;97300.03;;;-0.76;71.30
24302;BME280;12421;49.732;20.078;2024-01-11T15:41:41;97315.14;;;-1.12;73.12
24302;BME280;12421;49.732;20.078;2024-01-11T15:51:45;97320.19;;;-1.32;74.12
24302;BME280;12421;49.732;20.078;2024-01-11T16:01:48;97326.67;;;-1.42;74.67
24302;BME280;12421;49.732;20.078;2024-01-11T16:12:05;97333.66;;;-1.56;75.38
24302;BME280;12421;49.732;20.078;2024-01-11T16:22:09;97332.30;;;-1.63;75.70
24302;BME280;12421;49.732;20.078;2024-01-11T16:32:12;97326.70;;;-1.70;75.96
24302;BME280;12421;49.732;20.078;2024-01-11T16:42:18;97311.30;;;-1.76;76.77
24302;BME280;12421;49.732;20.078;2024-01-11T16:52:23;97307.01;;;-1.84;76.83
24302;BME280;12421;49.732;20.078;2024-01-11T17:02:26;97310.52;;;-1.90;77.42
24302;BME280;12421;49.732;20.078;2024-01-11T17:12:31;97312.70;;;-1.91;77.73
24302;BME280;12421;49.732;20.078;2024-01-11T17:22:36;97321.79;;;-1.84;77.99
24302;BME280;12421;49.732;20.078;2024-01-11T17:32:40;97313.38;;;-1.79;77.84
24302;BME280;12421;49.732;20.078;2024-01-11T17:42:43;97309.63;;;-1.87;77.88
24302;BME280;12421;49.732;20.078;2024-01-11T17:52:47;97313.45;;;-1.98;77.98
24302;BME280;12421;49.732;20.078;2024-01-11T18:02:53;97325.43;;;-1.99;78.30
24302;BME280;12421;49.732;20.078;2024-01-11T18:12:57;97328.90;;;-2.06;78.42
24302;BME280;12421;49.732;20.078;2024-01-11T18:23:00;97345.11;;;-2.05;78.83
24302;BME280;12421;49.732;20.078;2024-01-11T18:33:04;97348.42;;;-2.08;78.57
24302;BME280;12421;49.732;20.078;2024-01-11T18:43:09;97354.98;;;-2.15;78.38
24302;BME280;12421;49.732;20.078;2024-01-11T18:53:12;97354.85;;;-2.18;78.51
24302;BME280;12421;49.732;20.078;2024-01-11T19:03:16;97354.05;;;-2.17;79.19
24302;BME280;12421;49.732;20.078;2024-01-11T19:13:20;97345.23;;;-2.17;79.02
24302;BME280;12421;49.732;20.078;2024-01-11T19:23:29;97338.52;;;-2.18;79.34
24302;BME280;12421;49.732;20.078;2024-01-11T19:33:32;97339.66;;;-2.15;79.01
24302;BME280;12421;49.732;20.078;2024-01-11T19:43:38;97344.58;;;-2.17;79.18
24302;BME280;12421;49.732;20.078;2024-01-11T19:53:51;97360.80;;;-2.23;79.28
24302;BME280;12421;49.732;20.078;2024-01-11T20:03:55;97351.77;;;-2.21;79.74
24302;BME280;12421;49.732;20.078;2024-01-11T20:14:03;97344.98;;;-2.19;79.63
24302;BME280;12421;49.732;20.078;2024-01-11T20:24:09;97336.91;;;-2.19;79.96
24302;BME280;12421;49.732;20.078;2024-01-11T20:34:12;97341.23;;;-2.23;79.83
24302;BME280;12421;49.732;20.078;2024-01-11T20:44:17;97342.58;;;-2.19;80.15
24302;BME280;12421;49.732;20.078;2024-01-11T20:54:20;97348.30;;;-2.14;80.01
24302;BME280;12421;49.732;20.078;2024-01-11T21:04:24;97355.72;;;-2.21;80.21
24302;BME280;12421;49.732;20.078;2024-01-11T21:14:27;97367.62;;;-2.21;80.06
24302;BME280;12421;49.732;20.078;2024-01-11T21:24:30;97368.38;;;-2.12;80.26
24302;BME280;12421;49.732;20.078;2024-01-11T21:34:34;97373.96;;;-2.10;80.27
24302;BME280;12421;49.732;20.078;2024-01-11T21:44:37;97385.96;;;-2.14;80.13
24302;BME280;12421;49.732;20.078;2024-01-11T21:54:41;97391.67;;;-2.14;80.17
24302;BME280;12421;49.732;20.078;2024-01-11T22:04:44;97389.42;;;-2.10;80.31
24302;BME280;12421;49.732;20.078;2024-01-11T22:14:49;97391.80;;;-2.03;80.14
24302;BME280;12421;49.732;20.078;2024-01-11T22:24:52;97392.70;;;-2.14;79.88
24302;BME280;12421;49.732;20.078;2024-01-11T22:34:55;97406.79;;;-2.22;80.13
24302;BME280;12421;49.732;20.078;2024-01-11T22:44:59;97410.40;;;-2.18;80.21
24302;BME280;12421;49.732;20.078;2024-01-11T22:55:04;97404.85;;;-2.26;80.53
24302;BME280;12421;49.732;20.078;2024-01-11T23:05:07;97415.33;;;-2.34;80.45
24302;BME280;12421;49.732;20.078;2024-01-11T23:15:11;97407.80;;;-2.36;80.51
24302;BME280;12421;49.732;20.078;2024-01-11T23:25:14;97405.73;;;-2.37;80.69
24302;BME280;12421;49.732;20.078;2024-01-11T23:35:18;97409.33;;;-2.37;80.77
24302;BME280;12421;49.732;20.078;2024-01-11T23:45:21;97408.89;;;-2.39;81.13
24302;BME280;12421;49.732;20.078;2024-01-11T23:55:25;97418.48;;;-2.40;81.35
